Time;durP1;ratioP1;P1;durP2;ratioP2;P2;SDS_P1;SDS_P2;PMS_P1;PMS_P2;Temp;Humidity;BMP_temperature;BMP_pressure;BME280_temperature;BME280_humidity;BME280_pressure;Samples;Min_cycle;Max_cycle;Signal;HPM_P1;HPM_P2
2021/11/13 00:00:50;;;;;;;34.66;17.81;;;;;;;;;;365436;144;866429;-56
2021/11/13 00:01:51;;;;;;;37.08;18.24;;;;;;;;;;365754;144;858807;-55
2021/11/13 01:03:58;;;;;;;38.48;14.16;;;;;;;-1.51;76.66;100713.41;371444;141;873504;-57
2021/11/13 01:05:00;;;;;;;32.12;15.14;;;;;;;-1.62;76.89;100719.54;362129;144;857806;-55
2021/11/13 01:06:02;;;;;;;24.72;13.67;;;;;;;-1.64;76.67;100714.39;360963;144;857473;-53
2021/11/13 01:07:04;;;;;;;28.26;13.12;;;;;;;-1.63;76.84;100712.72;361159;145;857489;-55
2021/11/13 01:08:06;;;;;;;24.25;12.87;;;;;;;-1.57;76.89;100717.27;362046;145;865161;-55
2021/11/13 01:09:08;;;;;;;27.94;13.21;;;;;;;-1.48;76.65;100716.11;364497;145;857357;-55
2021/11/13 01:10:11;;;;;;;29.57;13.80;;;;;;;-1.36;76.66;100709.92;361960;144;859495;-56
2021/11/13 01:11:14;;;;;;;25.59;13.45;;;;;;;-1.20;76.60;100716.66;361320;145;861533;-56
2021/11/13 01:12:15;;;;;;;29.47;13.06;;;;;;;-1.02;76.24;100718.44;362568;144;857222;-56
2021/11/13 01:13:18;;;;;;;28.90;14.26;;;;;;;-0.80;76.27;100716.20;363125;145;866230;-55
2021/11/13 01:14:21;;;;;;;26.05;13.24;;;;;;;-0.57;75.65;100713.03;366347;145;865695;-55
2021/11/13 01:15:23;;;;;;;29.77;13.11;;;;;;;-0.35;75.12;100713.32;365531;145;859513;-55
2021/11/13 01:16:26;;;;;;;33.37;14.51;;;;;;;-0.12;74.16;100710.12;363772;145;857284;-58
2021/11/13 01:17:28;;;;;;;27.95;14.90;;;;;;;0.11;73.62;100719.75;362029;147;865696;-57
2021/11/13 01:18:30;;;;;;;26.20;13.84;;;;;;;0.34;72.58;100708.86;364117;145;857263;-58
2021/11/13 01:19:32;;;;;;;27.07;13.99;;;;;;;0.54;71.75;100715.77;364655;144;864880;-58
2021/11/13 01:20:34;;;;;;;25.26;13.12;;;;;;;0.75;70.95;100714.09;359635;147;856357;-58
2021/11/13 01:21:35;;;;;;;26.36;13.87;;;;;;;0.94;70.24;100715.78;361439;147;857748;-58
2021/11/13 01:22:38;;;;;;;25.85;14.49;;;;;;;1.07;68.85;100714.66;359934;147;857383;-57
2021/11/13 01:23:40;;;;;;;26.33;14.89;;;;;;;1.33;68.95;100709.78;359564;147;864901;-58
2021/11/13 01:24:41;;;;;;;29.15;16.19;;;;;;;1.33;68.95;100709.78;357152;147;857213;-54
2021/11/13 01:25:43;;;;;;;30.21;16.61;;;;;;;;;;358721;147;864783;-55
2021/11/13 01:26:46;;;;;;;30.39;16.21;;;;;;;;;;360438;147;864992;-55
2021/11/13 01:27:48;;;;;;;36.08;17.89;;;;;;;;;;358850;147;864965;-57
2021/11/13 01:28:50;;;;;;;38.10;19.56;;;;;;;;;;346697;151;857102;-55
2021/11/13 01:29:51;;;;;;;35.06;18.42;;;;;;;;;;359923;147;866484;-56
2021/11/13 01:30:53;;;;;;;30.30;17.61;;;;;;;;;;359785;147;866120;-57
2021/11/13 01:31:55;;;;;;;36.39;17.51;;;;;;;;;;361309;147;864891;-57
2021/11/13 01:32:56;;;;;;;37.64;18.44;;;;;;;;;;359605;147;857342;-55
2021/11/13 01:33:58;;;;;;;32.25;17.61;;;;;;;;;;359834;147;857518;-55
2021/11/13 01:35:00;;;;;;;35.85;17.74;;;;;;;;;;360737;146;860398;-55
2021/11/13 01:36:02;;;;;;;35.71;18.47;;;;;;;;;;359908;147;859050;-55
2021/11/13 01:37:04;;;;;;;34.35;18.03;;;;;;;;;;360635;147;865834;-55
2021/11/13 01:38:05;;;;;;;36.55;18.29;;;;;;;;;;361303;147;858762;-55
2021/11/13 01:39:07;;;;;;;40.70;20.52;;;;;;;;;;356075;147;857295;-55
2021/11/13 01:40:11;;;;;;;36.77;20.14;;;;;;;;;;360611;147;857831;-55
2021/11/13 01:41:13;;;;;;;39.36;20.74;;;;;;;;;;361206;147;857368;-55
2021/11/13 01:42:14;;;;;;;38.14;20.94;;;;;;;;;;358953;147;857130;-55
2021/11/13 01:43:16;;;;;;;39.20;20.87;;;;;;;;;;361419;147;865208;-55
2021/11/13 01:44:17;;;;;;;38.72;20.70;;;;;;;;;;361566;147;857613;-55
2021/11/13 01:45:19;;;;;;;36.06;17.44;;;;;;;;;;361754;147;857320;-55
2021/11/13 01:46:21;;;;;;;42.81;20.66;;;;;;;;;;362706;147;859126;-55
2021/11/13 01:47:22;;;;;;;34.77;18.54;;;;;;;;;;362047;147;857204;-55
2021/11/13 01:48:24;;;;;;;36.66;18.31;;;;;;;;;;360324;147;857399;-55
2021/11/13 01:49:26;;;;;;;34.97;18.29;;;;;;;;;;357911;148;863774;-55
2021/11/13 01:50:29;;;;;;;36.66;18.97;;;;;;;;;;357755;147;858268;-55
2021/11/13 01:51:32;;;;;;;33.68;17.96;;;;;;;;;;360250;147;857252;-55
2021/11/13 01:52:34;;;;;;;32.75;18.13;;;;;;;;;;356380;147;858442;-56
2021/11/13 01:53:36;;;;;;;32.95;18.83;;;;;;;;;;357588;147;857729;-55
2021/11/13 01:54:39;;;;;;;35.49;18.72;;;;;;;;;;359371;147;864986;-56
2021/11/13 01:55:41;;;;;;;34.81;18.92;;;;;;;;;;360383;146;857371;-55
2021/11/13 01:56:43;;;;;;;37.97;19.82;;;;;;;;;;361823;147;857261;-55
2021/11/13 01:57:46;;;;;;;33.31;18.21;;;;;;;;;;361463;147;864774;-55
2021/11/13 01:58:49;;;;;;;39.46;19.66;;;;;;;;;;360169;147;859510;-55
2021/11/13 01:59:51;;;;;;;35.09;18.79;;;;;;;;;;359240;147;857546;-55
2021/11/13 02:00:54;;;;;;;41.33;19.56;;;;;;;;;;357655;146;858122;-56
2021/11/13 02:01:55;;;;;;;37.97;19.75;;;;;;;;;;361073;147;857196;-55
2021/11/13 02:02:57;;;;;;;36.98;19.16;;;;;;;;;;359638;147;859387;-55
2021/11/13 02:03:58;;;;;;;36.41;19.41;;;;;;;;;;350918;150;865605;-55
2021/11/13 02:05:00;;;;;;;35.50;19.59;;;;;;;;;;347161;153;857385;-55
2021/11/13 02:06:02;;;;;;;36.53;18.13;;;;;;;;;;348857;152;864533;-55
2021/11/13 02:07:03;;;;;;;33.75;17.81;;;;;;;;;;350721;150;865658;-55
2021/11/13 02:08:05;;;;;;;32.95;17.65;;;;;;;;;;341213;155;858307;-55
2021/11/13 02:09:07;;;;;;;30.86;16.81;;;;;;;;;;346481;153;864079;-55
2021/11/13 02:10:08;;;;;;;36.31;17.92;;;;;;;;;;343257;153;857378;-56
2021/11/13 02:11:10;;;;;;;34.93;18.33;;;;;;;;;;345585;153;866367;-56
2021/11/13 02:12:12;;;;;;;36.36;18.47;;;;;;;;;;346830;154;865228;-56
2021/11/13 02:13:13;;;;;;;35.78;19.44;;;;;;;;;;347433;153;857639;-56
2021/11/13 02:14:15;;;;;;;34.03;18.51;;;;;;;;;;347512;154;857209;-55
2021/11/13 02:15:16;;;;;;;34.46;18.24;;;;;;;;;;355281;150;862630;-55
2021/11/13 02:16:18;;;;;;;37.35;18.98;;;;;;;;;;359102;146;858132;-55
2021/11/13 02:17:20;;;;;;;39.29;19.54;;;;;;;;;;360130;147;857305;-55
2021/11/13 02:18:21;;;;;;;37.35;17.97;;;;;;;;;;359796;148;860811;-56
2021/11/13 02:19:23;;;;;;;34.65;18.59;;;;;;;;;;359520;148;860931;-54
2021/11/13 02:20:29;;;;;;;35.02;18.34;;;;;;;;;;362163;147;865093;-55
2021/11/13 02:21:31;;;;;;;34.64;18.59;;;;;;;;;;360762;149;864842;-55
2021/11/13 02:22:33;;;;;;;36.30;18.49;;;;;;;;;;357016;148;857141;-56
2021/11/13 02:23:34;;;;;;;36.66;19.64;;;;;;;;;;361245;148;865031;-55
2021/11/13 02:24:36;;;;;;;40.70;19.87;;;;;;;;;;358526;147;858197;-55
2021/11/13 02:25:37;;;;;;;37.56;19.62;;;;;;;;;;356154;148;865187;-55
2021/11/13 02:26:40;;;;;;;37.37;20.46;;;;;;;;;;360248;148;861669;-55
2021/11/13 02:27:42;;;;;;;41.29;21.32;;;;;;;;;;357173;147;864668;-56
2021/11/13 02:28:43;;;;;;;44.47;22.95;;;;;;;;;;360831;148;858274;-56
2021/11/13 02:29:45;;;;;;;43.41;22.09;;;;;;;;;;359495;148;859249;-56
2021/11/13 02:30:47;;;;;;;44.26;22.58;;;;;;;;;;360079;147;864999;-56
2021/11/13 02:31:49;;;;;;;45.53;23.29;;;;;;;;;;358618;149;866431;-57
2021/11/13 02:32:52;;;;;;;46.74;24.34;;;;;;;;;;355646;148;859019;-56
2021/11/13 02:33:54;;;;;;;45.62;23.73;;;;;;;;;;360084;148;858333;-57
2021/11/13 02:34:55;;;;;;;45.69;23.19;;;;;;;;;;361956;147;857845;-62
2021/11/13 02:35:57;;;;;;;49.56;23.49;;;;;;;;;;356122;146;865475;-56
2021/11/13 02:36:59;;;;;;;46.95;23.86;;;;;;;;;;357888;148;857569;-56
2021/11/13 02:38:10;;;;;;;46.30;24.51;;;;;;;;;;360275;147;865022;-56
2021/11/13 02:39:12;;;;;;;50.49;25.17;;;;;;;;;;358289;148;857257;-56
2021/11/13 02:40:16;;;;;;;51.55;24.81;;;;;;;;;;360755;148;860202;-56
2021/11/13 02:41:19;;;;;;;49.86;25.27;;;;;;;;;;361050;147;858012;-55
2021/11/13 02:42:22;;;;;;;47.94;23.77;;;;;;;;;;359789;148;866424;-55
2021/11/13 02:43:25;;;;;;;50.19;24.46;;;;;;;;;;361107;149;857252;-55
2021/11/13 02:44:26;;;;;;;49.19;24.79;;;;;;;;;;360759;147;857223;-56
2021/11/13 02:45:28;;;;;;;57.97;24.18;;;;;;;;;;360864;147;858901;-56
2021/11/13 02:46:32;;;;;;;46.01;22.19;;;;;;;;;;360669;146;866794;-56
2021/11/13 02:47:34;;;;;;;43.28;23.55;;;;;;;;;;360109;148;857697;-58
2021/11/13 02:48:37;;;;;;;51.84;25.64;;;;;;;;;;360902;148;859048;-56
2021/11/13 02:49:38;;;;;;;255.05;25.50;;;;;;;;;;359384;148;859133;-55
2021/11/13 02:50:42;;;;;;;297.55;19.79;;;;;;;;;;362288;147;858844;-56
2021/11/13 02:51:44;;;;;;;217.49;20.07;;;;;;;;;;361225;147;864838;-55
2021/11/13 02:52:50;;;;;;;217.78;23.83;;;;;;;;;;361477;148;857108;-55
2021/11/13 02:53:52;;;;;;;261.07;33.55;;;;;;;;;;357291;148;857221;-55
2021/11/13 02:54:54;;;;;;;326.78;28.94;;;;;;;;;;361311;148;857308;-55
2021/11/13 02:55:56;;;;;;;95.39;28.83;;;;;;;;;;360828;147;857345;-56
2021/11/13 02:56:57;;;;;;;74.02;27.95;;;;;;;;;;357778;149;857283;-55
2021/11/13 02:57:59;;;;;;;99.33;29.33;;;;;;;;;;358539;148;857305;-56
2021/11/13 02:59:01;;;;;;;212.66;31.70;;;;;;;;;;361565;148;867120;-56
2021/11/13 03:00:03;;;;;;;138.32;31.60;;;;;;;;;;360262;147;865772;-55
2021/11/13 03:01:06;;;;;;;60.08;29.03;;;;;;;;;;358567;149;865112;-55
2021/11/13 03:02:08;;;;;;;65.97;30.61;;;;;;;;;;359952;148;856739;-55
2021/11/13 03:03:11;;;;;;;97.16;23.94;;;;;;;;;;362333;147;858518;-55
2021/11/13 03:04:13;;;;;;;91.22;29.34;;;;;;;;;;355983;149;864908;-55
2021/11/13 03:05:23;;;;;;;149.51;31.10;;;;;;;;;;354759;148;857636;-55
2021/11/13 03:06:26;;;;;;;150.18;24.88;;;;;;;;;;358270;148;858800;-55
2021/11/13 03:07:28;;;;;;;76.07;28.76;;;;;;;;;;356924;149;858603;-55
2021/11/13 03:08:30;;;;;;;69.47;30.71;;;;;;;;;;354279;148;865013;-55
2021/11/13 03:09:32;;;;;;;127.31;31.60;;;;;;;;;;357765;148;858400;-55
2021/11/13 03:10:35;;;;;;;80.12;32.00;;;;;;;;;;356070;148;858262;-55
2021/11/13 03:11:37;;;;;;;96.02;31.55;;;;;;;;;;358848;149;858687;-55
2021/11/13 03:12:38;;;;;;;160.64;34.62;;;;;;;;;;359460;148;857308;-55
2021/11/13 03:13:41;;;;;;;231.66;34.31;;;;;;;;;;358448;148;859545;-55
2021/11/13 03:14:42;;;;;;;343.27;34.31;;;;;;;;;;354774;149;857425;-55
2021/11/13 03:15:44;;;;;;;437.99;33.18;;;;;;;;;;359491;147;857160;-56
2021/11/13 03:16:46;;;;;;;368.63;31.97;;;;;;;;;;358983;148;864981;-55
2021/11/13 03:17:47;;;;;;;360.43;35.15;;;;;;;;;;357742;148;865816;-55
2021/11/13 03:18:49;;;;;;;301.92;32.65;;;;;;;;;;355621;149;859017;-55
2021/11/13 03:19:51;;;;;;;248.58;32.97;;;;;;;;;;358732;148;857105;-55
2021/11/13 03:20:52;;;;;;;86.15;25.73;;;;;;;;;;359190;149;858557;-55
2021/11/13 03:21:54;;;;;;;75.36;29.36;;;;;;;;;;359951;149;857636;-55
2021/11/13 03:22:56;;;;;;;71.26;27.04;;;;;;;;;;359513;148;864754;-55
2021/11/13 03:23:58;;;;;;;63.66;21.99;;;;;;;;;;358818;148;866801;-56
2021/11/13 03:24:59;;;;;;;85.17;26.62;;;;;;;;;;359781;149;857404;-55
2021/11/13 03:26:06;;;;;;;66.59;24.97;;;;;;;;;;359289;148;866132;-55
2021/11/13 03:27:07;;;;;;;53.26;25.95;;;;;;;;;;356074;149;864264;-55
2021/11/13 03:28:09;;;;;;;57.41;28.01;;;;;;;;;;357241;148;859275;-55
2021/11/13 03:29:15;;;;;;;45.99;23.34;;;;;;;;;;355489;149;865304;-54
2021/11/13 03:30:18;;;;;;;43.31;22.95;;;;;;;;;;358553;147;858630;-55
2021/11/13 03:31:23;;;;;;;46.95;23.85;;;;;;;;;;358775;148;856990;-55
2021/11/13 03:32:23;;;;;;;43.33;23.09;;;;;;;;;;357096;149;859486;-55
2021/11/13 03:33:25;;;;;;;48.37;24.77;;;;;;;;;;355617;148;858158;-55
2021/11/13 03:34:26;;;;;;;43.81;22.39;;;;;;;;;;358198;147;858615;-55
2021/11/13 03:35:29;;;;;;;37.44;19.68;;;;;;;;;;359137;149;857723;-55
2021/11/13 03:36:33;;;;;;;36.34;19.94;;;;;;;;;;353807;149;864814;-55
2021/11/13 03:37:34;;;;;;;44.13;20.94;;;;;;;;;;345359;153;857572;-55
2021/11/13 03:38:37;;;;;;;45.09;21.65;;;;;;;;;;344775;154;857344;-55
2021/11/13 03:39:38;;;;;;;43.67;22.19;;;;;;;;;;348169;152;858963;-54
2021/11/13 03:40:40;;;;;;;41.40;20.49;;;;;;;;;;346693;152;859422;-54
2021/11/13 03:41:42;;;;;;;43.09;22.81;;;;;;;;;;348959;151;864855;-55
2021/11/13 03:42:44;;;;;;;41.31;21.35;;;;;;;;;;351345;151;856396;-55
2021/11/13 03:43:45;;;;;;;41.62;21.55;;;;;;;;;;350048;153;857381;-55
2021/11/13 03:44:47;;;;;;;47.02;23.26;;;;;;;;;;350186;151;857265;-55
2021/11/13 03:45:49;;;;;;;63.52;27.16;;;;;;;;;;350057;150;864939;-55
2021/11/13 03:46:50;;;;;;;88.69;29.63;;;;;;;;;;349910;153;865022;-55
2021/11/13 03:47:53;;;;;;;57.91;29.25;;;;;;;;;;349594;151;857191;-55
2021/11/13 03:48:55;;;;;;;75.85;29.88;;;;;;;;;;349570;151;860396;-56
2021/11/13 03:49:57;;;;;;;69.39;29.38;;;;;;;;;;350105;153;865092;-55
2021/11/13 03:50:58;;;;;;;62.79;29.27;;;;;;;;;;347393;151;865875;-57
2021/11/13 03:52:00;;;;;;;58.39;28.74;;;;;;;;;;348475;152;859542;-57
2021/11/13 03:53:02;;;;;;;61.58;28.97;;;;;;;;;;350145;153;864866;-57
2021/11/13 03:54:04;;;;;;;62.95;29.93;;;;;;;;;;347787;153;857448;-56
2021/11/13 03:55:06;;;;;;;68.73;32.05;;;;;;;;;;350315;153;857373;-56
2021/11/13 03:56:08;;;;;;;79.84;32.39;;;;;;;;;;348934;151;856857;-56
2021/11/13 03:57:10;;;;;;;86.62;33.81;;;;;;;;;;348351;153;859768;-57
2021/11/13 03:58:11;;;;;;;104.49;36.51;;;;;;;;;;350085;151;865879;-57
2021/11/13 03:59:13;;;;;;;104.76;35.37;;;;;;;;;;350560;151;864732;-56
2021/11/13 04:00:17;;;;;;;88.44;35.46;;;;;;;;;;349875;152;866050;-57
2021/11/13 04:01:18;;;;;;;253.51;38.51;;;;;;;;;;350906;152;857668;-55
2021/11/13 04:02:20;;;;;;;190.61;32.76;;;;;;;;;;351408;150;859702;-56
2021/11/13 04:03:21;;;;;;;442.35;40.51;;;;;;;;;;342586;153;865066;-57
2021/11/13 04:04:23;;;;;;;327.51;31.34;;;;;;;;;;346042;153;857458;-57
2021/11/13 04:05:24;;;;;;;317.57;31.87;;;;;;;;;;344562;153;866018;-58
2021/11/13 04:06:28;;;;;;;193.64;34.52;;;;;;;;;;359844;147;864742;-56
2021/11/13 04:07:30;;;;;;;140.73;35.67;;;;;;;;;;358933;146;859041;-56
2021/11/13 04:08:31;;;;;;;318.21;35.00;;;;;;;;;;359194;149;857130;-55
2021/11/13 04:09:33;;;;;;;190.53;36.62;;;;;;;;;;359820;147;857236;-55
2021/11/13 04:10:35;;;;;;;218.74;41.02;;;;;;;;;;361703;146;864996;-55
2021/11/13 04:11:36;;;;;;;208.06;36.78;;;;;;;;;;359901;147;857204;-55
2021/11/13 04:12:38;;;;;;;312.78;38.84;;;;;;;;;;358500;148;865080;-55
2021/11/13 04:13:39;;;;;;;186.33;37.04;;;;;;;;;;360136;147;857248;-55
2021/11/13 04:14:45;;;;;;;170.51;36.39;;;;;;;;;;360615;148;865483;-55
2021/11/13 04:15:47;;;;;;;149.03;36.09;;;;;;;;;;356978;148;863948;-57
2021/11/13 04:16:48;;;;;;;89.05;34.32;;;;;;;;;;358143;147;859901;-57
2021/11/13 04:17:50;;;;;;;89.25;34.89;;;;;;;;;;357102;147;864916;-55
2021/11/13 04:18:52;;;;;;;88.17;32.72;;;;;;;;;;359647;146;857191;-55
2021/11/13 04:19:53;;;;;;;102.21;36.41;;;;;;;;;;360301;147;861241;-56
2021/11/13 04:20:55;;;;;;;164.44;36.70;;;;;;;;;;362305;147;861456;-55
2021/11/13 04:21:57;;;;;;;121.44;38.39;;;;;;;;;;359507;147;865294;-58
2021/11/13 04:22:59;;;;;;;81.99;33.01;;;;;;;;;;357393;148;858264;-55
2021/11/13 04:24:00;;;;;;;69.06;31.96;;;;;;;;;;358863;147;864343;-55
2021/11/13 04:25:02;;;;;;;70.00;32.30;;;;;;;;;;361228;147;866025;-55
2021/11/13 04:26:04;;;;;;;70.32;30.60;;;;;;;;;;361515;149;859341;-55
2021/11/13 04:27:06;;;;;;;46.51;23.57;;;;;;;;;;360015;148;857285;-54
2021/11/13 04:28:07;;;;;;;62.71;29.88;;;;;;;;;;361594;147;856399;-54
2021/11/13 04:29:09;;;;;;;53.55;25.07;;;;;;;;;;358570;149;857184;-55
2021/11/13 04:30:13;;;;;;;61.10;27.75;;;;;;;;;;361770;146;860876;-53
2021/11/13 04:31:15;;;;;;;58.31;25.82;;;;;;;;;;360372;147;857140;-53
2021/11/13 04:32:16;;;;;;;52.31;24.23;;;;;;;;;;360640;146;857117;-52
2021/11/13 04:33:18;;;;;;;45.81;22.29;;;;;;;;;;360916;148;857166;-54
2021/11/13 04:34:22;;;;;;;88.16;26.23;;;;;;;;;;361520;147;857389;-57
2021/11/13 04:35:44;;;;;;;49.54;24.61;;;;;;;;;;359522;146;865943;-55
2021/11/13 04:36:32;;;;;;;49.78;24.81;;;;;;;;;;356801;147;857325;-55
2021/11/13 04:37:32;;;;;;;45.74;23.55;;;;;;;;;;358390;147;856250;-53
2021/11/13 04:38:33;;;;;;;52.11;27.58;;;;;;;;;;360362;147;857298;-54
2021/11/13 04:39:35;;;;;;;44.91;23.19;;;;;;;;;;358515;146;866092;-54
2021/11/13 04:40:37;;;;;;;45.99;24.14;;;;;;;;;;359162;146;857174;-55
2021/11/13 04:41:39;;;;;;;44.31;22.77;;;;;;;;;;358674;147;864921;-55
2021/11/13 04:42:41;;;;;;;50.46;24.97;;;;;;;;;;356261;148;858664;-56
2021/11/13 04:43:42;;;;;;;52.39;26.44;;;;;;;;;;357780;147;857216;-57
2021/11/13 04:44:44;;;;;;;50.51;24.11;;;;;;;;;;360099;148;858309;-56
2021/11/13 04:45:46;;;;;;;49.89;23.91;;;;;;;;;;358131;148;859299;-57
2021/11/13 04:46:47;;;;;;;47.45;25.51;;;;;;;;;;360020;147;859475;-56
2021/11/13 04:47:49;;;;;;;48.10;23.39;;;;;;;;;;357660;147;859117;-55
2021/11/13 04:48:51;;;;;;;41.28;21.24;;;;;;;;;;359469;147;864902;-57
2021/11/13 04:49:52;;;;;;;43.19;22.00;;;;;;;;;;357679;146;859183;-55
2021/11/13 04:50:57;;;;;;;48.69;23.26;;;;;;;;;;356297;147;866192;-56
2021/11/13 04:51:58;;;;;;;59.44;27.45;;;;;;;;;;358656;146;865004;-55
2021/11/13 04:53:00;;;;;;;52.90;26.05;;;;;;;;;;359954;147;857369;-55
2021/11/13 04:54:01;;;;;;;52.06;27.44;;;;;;;;;;356520;149;856322;-57
2021/11/13 04:55:03;;;;;;;58.69;26.46;;;;;;;;;;360149;148;863581;-55
2021/11/13 04:56:05;;;;;;;54.49;28.19;;;;;;;;;;359613;147;856354;-56
2021/11/13 04:57:07;;;;;;;44.76;22.94;;;;;;;;;;357590;146;856131;-57
2021/11/13 04:58:08;;;;;;;49.42;24.78;;;;;;;;;;357525;149;860035;-55
2021/11/13 04:59:10;;;;;;;47.31;23.99;;;;;;;;;;359512;147;858962;-56
2021/11/13 05:00:14;;;;;;;44.62;22.90;;;;;;;;;;357164;146;863878;-58
2021/11/13 05:01:15;;;;;;;43.51;22.16;;;;;;;;;;357863;148;856475;-56
2021/11/13 05:02:17;;;;;;;42.61;20.80;;;;;;;;;;359457;146;856382;-57
2021/11/13 05:03:19;;;;;;;45.78;23.68;;;;;;;;;;357335;147;856013;-57
2021/11/13 05:04:20;;;;;;;52.46;24.96;;;;;;;;;;357901;149;857409;-56
2021/11/13 06:03:59;;;;;;;37.19;16.63;;;;;;;-0.56;81.10;100870.84;375339;141;878815;-61
2021/11/13 06:05:01;;;;;;;44.29;19.89;;;;;;;-0.65;80.97;100868.68;367538;144;856606;-61
2021/11/13 06:06:03;;;;;;;35.59;16.35;;;;;;;-0.66;80.91;100864.39;359721;147;857421;-61
2021/11/13 06:07:05;;;;;;;34.01;15.78;;;;;;;-0.62;81.11;100870.52;366994;144;858612;-61
2021/11/13 06:08:07;;;;;;;29.27;15.23;;;;;;;-0.55;81.13;100867.50;369384;144;858030;-61
2021/11/13 06:09:09;;;;;;;31.20;14.59;;;;;;;-0.43;81.11;100869.83;370181;144;858019;-61
2021/11/13 06:10:12;;;;;;;26.36;14.33;;;;;;;-0.27;81.63;100873.16;367198;144;861361;-61
2021/11/13 06:11:14;;;;;;;29.96;13.93;;;;;;;-0.08;81.71;100872.39;366972;144;860237;-61
2021/11/13 06:12:16;;;;;;;27.89;14.95;;;;;;;0.12;81.34;100871.75;369320;144;857688;-61
2021/11/13 06:13:18;;;;;;;30.76;15.31;;;;;;;0.33;80.84;100878.69;365800;144;858019;-61
2021/11/13 06:14:20;;;;;;;29.57;15.04;;;;;;;0.57;79.93;100878.12;365828;144;867004;-61
2021/11/13 06:15:21;;;;;;;31.49;15.54;;;;;;;0.79;78.82;100886.78;366428;144;865160;-62
2021/11/13 06:16:23;;;;;;;32.12;15.54;;;;;;;1.02;77.53;100880.21;368453;144;864035;-61
2021/11/13 06:17:27;;;;;;;33.66;15.12;;;;;;;1.22;76.66;100881.13;367110;144;857443;-61
2021/11/13 06:18:32;;;;;;;30.54;16.01;;;;;;;1.46;76.10;100876.23;366589;144;859615;-61
2021/11/13 06:19:33;;;;;;;32.45;16.68;;;;;;;1.73;75.37;100887.59;371146;144;866418;-60
2021/11/13 06:20:35;;;;;;;30.18;15.66;;;;;;;2.00;74.52;100887.02;367521;144;857787;-61
2021/11/13 06:21:37;;;;;;;29.29;15.38;;;;;;;2.23;73.86;100880.32;361198;146;857406;-62
2021/11/13 06:22:39;;;;;;;30.01;17.36;;;;;;;2.47;73.14;100882.13;365415;147;860978;-61
2021/11/13 06:23:46;;;;;;;34.69;17.38;;;;;;;2.66;72.02;100883.74;363217;147;866391;-61
2021/11/13 06:24:45;;;;;;;34.75;18.12;;;;;;;2.85;71.39;100884.45;361552;146;859377;-62
2021/11/13 06:25:47;;;;;;;35.49;16.89;;;;;;;3.05;70.68;100880.97;361834;147;857335;-60
2021/11/13 06:26:49;;;;;;;29.51;15.49;;;;;;;3.25;70.08;100888.55;364327;147;857253;-61
2021/11/13 06:27:51;;;;;;;29.49;16.25;;;;;;;3.43;69.74;100880.66;362963;147;858714;-61
2021/11/13 06:28:53;;;;;;;32.26;17.94;;;;;;;3.63;69.10;100877.94;363878;146;857181;-61
2021/11/13 06:29:55;;;;;;;33.62;18.21;;;;;;;3.80;68.47;100878.54;356316;149;864795;-61
2021/11/13 06:30:57;;;;;;;33.73;18.63;;;;;;;3.95;67.99;100886.75;356984;149;860243;-61
2021/11/13 06:31:59;;;;;;;32.92;18.43;;;;;;;4.09;67.31;100878.66;361122;146;858001;-62
2021/11/13 06:33:01;;;;;;;35.89;18.47;;;;;;;4.18;66.48;100885.80;361237;147;857358;-59
2021/11/13 06:34:03;;;;;;;37.23;19.94;;;;;;;4.21;66.10;100879.06;355476;147;857364;-61
2021/11/13 06:35:06;;;;;;;37.79;21.02;;;;;;;4.20;66.00;100884.16;354040;148;863823;-62
2021/11/13 06:36:10;;;;;;;35.31;19.84;;;;;;;4.15;66.18;100886.55;361818;147;863851;-62
2021/11/13 06:37:12;;;;;;;41.01;20.59;;;;;;;4.12;66.58;100890.72;364042;147;857325;-61
2021/11/13 06:38:17;;;;;;;43.02;20.96;;;;;;;4.08;66.84;100888.05;361088;146;858981;-62
2021/11/13 06:39:19;;;;;;;35.21;20.16;;;;;;;4.05;67.19;100895.64;361468;147;857177;-64
2021/11/13 06:40:25;;;;;;;40.30;20.86;;;;;;;4.04;67.50;100891.33;361979;147;858672;-62
2021/11/13 06:41:30;;;;;;;35.55;20.41;;;;;;;4.04;67.71;100890.45;361048;147;856544;-62
2021/11/13 06:42:31;;;;;;;37.51;21.01;;;;;;;4.04;67.84;100888.77;360757;146;857334;-62
2021/11/13 06:43:32;;;;;;;45.70;22.71;;;;;;;;;;361797;147;859418;-62
2021/11/13 06:44:34;;;;;;;39.74;20.41;;;;;;;;;;360561;147;857196;-64
2021/11/13 06:45:36;;;;;;;39.47;20.80;;;;;;;;;;363051;146;857428;-62
2021/11/13 06:46:38;;;;;;;41.73;20.27;;;;;;;;;;355772;150;865001;-63
2021/11/13 06:47:40;;;;;;;41.74;21.23;;;;;;;;;;355697;150;860035;-62
2021/11/13 06:48:42;;;;;;;40.74;20.81;;;;;;;;;;361649;147;865097;-62
2021/11/13 06:49:43;;;;;;;40.63;21.60;;;;;;;;;;361766;146;864026;-62
2021/11/13 06:50:46;;;;;;;41.26;21.61;;;;;;;;;;360143;147;857398;-63
2021/11/13 06:51:48;;;;;;;42.07;20.88;;;;;;;;;;361235;147;864809;-63
2021/11/13 06:52:50;;;;;;;41.53;22.83;;;;;;;;;;360685;146;857226;-62
2021/11/13 06:53:52;;;;;;;44.46;21.76;;;;;;;;;;359683;146;857677;-63
2021/11/13 06:54:53;;;;;;;44.74;21.96;;;;;;;;;;359369;147;865980;-62
2021/11/13 06:55:55;;;;;;;42.03;21.01;;;;;;;;;;361002;146;865477;-61
2021/11/13 06:56:58;;;;;;;41.89;21.56;;;;;;;;;;360885;146;865097;-61
2021/11/13 06:58:00;;;;;;;40.41;21.62;;;;;;;;;;362797;147;865024;-62
2021/11/13 06:59:02;;;;;;;38.68;21.79;;;;;;;;;;362155;147;857435;-62
2021/11/13 07:00:05;;;;;;;43.03;21.89;;;;;;;;;;362471;147;866105;-61
2021/11/13 07:01:06;;;;;;;44.17;22.68;;;;;;;;;;361355;147;865886;-61
2021/11/13 07:02:08;;;;;;;43.29;22.11;;;;;;;;;;365087;147;859440;-63
2021/11/13 07:03:10;;;;;;;44.70;23.72;;;;;;;;;;361152;147;865564;-62
2021/11/13 07:04:31;;;;;;;47.64;24.44;;;;;;;;;;363394;147;856328;-61
2021/11/13 07:05:33;;;;;;;50.17;24.32;;;;;;;;;;358246;147;857309;-59
2021/11/13 07:06:35;;;;;;;51.71;26.48;;;;;;;;;;358783;147;858600;-60
2021/11/13 07:07:36;;;;;;;53.77;27.35;;;;;;;;;;358399;147;858957;-60
2021/11/13 07:08:38;;;;;;;51.71;26.95;;;;;;;;;;358301;149;859299;-59
2021/11/13 07:09:40;;;;;;;50.16;25.97;;;;;;;;;;358342;147;857928;-59
2021/11/13 07:10:41;;;;;;;51.14;26.64;;;;;;;;;;356931;147;865621;-60
2021/11/13 07:11:43;;;;;;;51.99;26.05;;;;;;;;;;355593;147;856373;-60
2021/11/13 07:12:45;;;;;;;53.31;27.93;;;;;;;;;;357371;149;863594;-60
2021/11/13 07:13:47;;;;;;;49.35;25.93;;;;;;;;;;358558;147;856011;-60
2021/11/13 07:14:49;;;;;;;53.78;26.31;;;;;;;;;;356453;149;856108;-60
2021/11/13 07:15:50;;;;;;;46.40;24.80;;;;;;;;;;357108;148;856041;-59
2021/11/13 07:16:52;;;;;;;52.46;26.21;;;;;;;;;;358152;148;858882;-60
2021/11/13 07:17:53;;;;;;;54.34;25.71;;;;;;;;;;357268;147;863624;-59
2021/11/13 07:18:55;;;;;;;45.37;24.09;;;;;;;;;;355193;148;856248;-59
2021/11/13 07:19:57;;;;;;;48.31;24.01;;;;;;;;;;358219;148;857003;-60
2021/11/13 07:20:59;;;;;;;42.14;22.62;;;;;;;;;;359012;147;857186;-59
2021/11/13 07:22:01;;;;;;;41.81;23.24;;;;;;;;;;357010;147;863985;-59
2021/11/13 07:23:03;;;;;;;41.79;22.92;;;;;;;;;;355297;148;856917;-60
2021/11/13 07:24:06;;;;;;;41.54;22.54;;;;;;;;;;357967;147;864004;-60
2021/11/13 07:25:13;;;;;;;47.23;23.03;;;;;;;;;;358560;147;856206;-60
2021/11/13 07:26:14;;;;;;;39.81;22.67;;;;;;;;;;356956;148;857038;-60
2021/11/13 07:27:16;;;;;;;42.73;22.41;;;;;;;;;;358248;147;856518;-59
2021/11/13 07:28:20;;;;;;;40.72;21.85;;;;;;;;;;357985;147;857109;-59
2021/11/13 07:29:24;;;;;;;44.17;23.31;;;;;;;;;;355952;150;856080;-59
2021/11/13 07:30:25;;;;;;;36.04;20.53;;;;;;;;;;357562;147;864861;-59
2021/11/13 07:31:26;;;;;;;40.18;20.56;;;;;;;;;;357299;148;856211;-60
2021/11/13 07:32:28;;;;;;;42.94;21.78;;;;;;;;;;357240;147;863781;-59
2021/11/13 07:33:30;;;;;;;39.48;21.05;;;;;;;;;;354066;149;856246;-60
2021/11/13 07:34:31;;;;;;;39.79;21.14;;;;;;;;;;357679;148;863840;-59
2021/11/13 07:35:33;;;;;;;39.63;22.19;;;;;;;;;;357664;148;856788;-59
2021/11/13 07:36:36;;;;;;;44.51;22.64;;;;;;;;;;356826;147;856465;-59
2021/11/13 07:37:38;;;;;;;39.46;21.69;;;;;;;;;;358679;148;856370;-60
2021/11/13 07:38:40;;;;;;;39.27;22.07;;;;;;;;;;360329;148;863595;-60
2021/11/13 07:39:41;;;;;;;41.50;22.02;;;;;;;;;;357865;147;856157;-59